Calmoscat — HBY4452 — position and weather

sailwx.info

Track history (hours):
 
Tides and Currents Weather Stations Pressure Air Temp Water Temp Dewpoint Dewpoint Depression Visibility Wind Speed Wind Dir Waves Ship Positions

Calmoscat

Last reported at 2014-Apr-24 11:06 UTC. Time now 2014-Oct-26 01:07 UTC.
Position N 38°59' E 009°17'.
Warning: this ship's position is months out of date.

Length 13 m.

Type: Sailing vessel. MMSI: 269102670.

Date/timePositionNaut miles runAvg speedWind from/ knotsBaromVisibWave heightAir tempDewpointWater temp
2014-Apr-24 11:06N 38°59' E 009°17'4 6.5
2014-Apr-24 10:32N 38°60' E 009°13'5 5.1
2014-Apr-24 09:32N 39°01' E 009°06'5 0.3
2014-Apr-23 14:03N 38°59' E 008°60'0 0.0
2014-Apr-23 13:33N 38°59' E 008°60'  
2014-Apr-20 12:24N 39°19' E 002°56'21 0.5
2014-Apr-18 16:25N 39°31' E 002°33'1 1.7
2014-Apr-18 15:33N 39°29' E 002°33'5 4.8
2014-Apr-18 14:33N 39°27' E 002°28'6 6.0
2014-Apr-18 13:33N 39°25' E 002°20'7 6.5
2014-Apr-18 12:33N 39°22' E 002°13'7 6.9
2014-Apr-18 11:31N 39°17' E 002°06'7 6.9
2014-Apr-18 10:32N 39°13' E 001°59'  
Track history (hours):
 
Tides and Currents Weather Stations Pressure Air Temp Water Temp Dewpoint Dewpoint Depression Visibility Wind Speed Wind Dir Waves Ship Positions

Calmoscat

Last reported at 2014-Apr-24 11:06 UTC. Time now 2014-Oct-26 01:07 UTC.
Position N 38°59' E 009°17'.
Warning: this ship's position is months out of date.

Length 13 m.

Type: Sailing vessel. MMSI: 269102670.

Date/timePositionNaut miles runAvg speedWind from/ knotsBaromVisibWave heightAir tempDewpointWater temp
2014-Apr-24 11:06N 38°59' E 009°17'4 6.5
2014-Apr-24 10:32N 38°60' E 009°13'5 5.1
2014-Apr-24 09:32N 39°01' E 009°06'5 0.3
2014-Apr-23 14:03N 38°59' E 008°60'0 0.0
2014-Apr-23 13:33N 38°59' E 008°60'  
2014-Apr-20 12:24N 39°19' E 002°56'21 0.5
2014-Apr-18 16:25N 39°31' E 002°33'1 1.7
2014-Apr-18 15:33N 39°29' E 002°33'5 4.8
2014-Apr-18 14:33N 39°27' E 002°28'6 6.0
2014-Apr-18 13:33N 39°25' E 002°20'7 6.5
2014-Apr-18 12:33N 39°22' E 002°13'7 6.9
2014-Apr-18 11:31N 39°17' E 002°06'7 6.9
2014-Apr-18 10:32N 39°13' E 001°59'  

Dump ship's entire track history